Time;durP1;ratioP1;P1;durP2;ratioP2;P2;SDS_P1;SDS_P2;PMS_P1;PMS_P2;Temp;Humidity;BMP_temperature;BMP_pressure;BME280_temperature;BME280_humidity;BME280_pressure;Samples;Min_cycle;Max_cycle;Signal;HPM_P1;HPM_P2
2022/10/25 00:01:21;;;;;;;1.30;1.20;;;18.40;99.90;;;;;;5054251;28;20226;-70
2022/10/25 00:03:47;;;;;;;2.50;1.10;;;18.40;99.90;;;;;;5037466;28;20213;-70
2022/10/25 00:06:14;;;;;;;2.15;1.08;;;18.40;99.90;;;;;;5054472;28;20182;-70
2022/10/25 00:08:40;;;;;;;1.88;1.30;;;18.40;99.90;;;;;;5037404;28;20196;-70
2022/10/25 00:11:09;;;;;;;1.40;0.85;;;18.40;99.90;;;;;;5037844;28;20642;-70
2022/10/25 00:13:35;;;;;;;1.30;0.90;;;18.40;99.90;;;;;;5037660;28;20245;-71
2022/10/25 00:16:00;;;;;;;1.88;1.20;;;18.40;99.90;;;;;;5054010;28;20217;-71
2022/10/25 00:18:26;;;;;;;2.65;1.10;;;18.40;99.90;;;;;;5054720;28;20218;-70
2022/10/25 00:20:52;;;;;;;4.07;1.35;;;18.40;99.90;;;;;;5055008;28;20178;-70
2022/10/25 00:23:18;;;;;;;1.42;1.00;;;18.40;99.90;;;;;;5037259;28;20210;-70
2022/10/25 00:25:44;;;;;;;2.22;1.00;;;18.40;99.90;;;;;;5037260;28;20191;-70
2022/10/25 00:28:10;;;;;;;0.90;0.90;;;18.40;99.90;;;;;;5037127;28;20191;-69
2022/10/25 00:30:36;;;;;;;1.33;0.80;;;18.40;99.90;;;;;;5054228;28;20187;-70
2022/10/25 00:33:01;;;;;;;1.77;1.10;;;18.40;99.90;;;;;;5055099;28;20205;-70
2022/10/25 00:35:27;;;;;;;1.17;1.08;;;18.40;99.90;;;;;;5037261;28;20194;-70
2022/10/25 00:37:53;;;;;;;1.23;1.00;;;18.40;99.90;;;;;;5037225;28;20263;-71
2022/10/25 00:40:19;;;;;;;1.85;0.90;;;18.40;99.90;;;;;;5054517;28;20189;-70
2022/10/25 00:42:44;;;;;;;1.42;1.05;;;18.40;99.90;;;;;;5036988;28;20245;-70
2022/10/25 00:45:24;;;;;;;1.30;1.10;;;18.40;99.90;;;;;;5053509;28;20178;-70
2022/10/25 00:48:02;;;;;;;0.80;0.68;;;18.40;99.90;;;;;;5053681;28;20236;-71
2022/10/25 00:50:48;;;;;;;1.23;0.98;;;18.40;99.90;;;;;;5053529;28;20178;-70
2022/10/25 00:53:22;;;;;;;1.75;0.80;;;18.30;99.90;;;;;;5036702;28;20264;-70
2022/10/25 00:56:17;;;;;;;1.10;1.00;;;18.30;99.90;;;;;;5036635;28;20187;-71
2022/10/25 00:58:50;;;;;;;1.17;1.00;;;18.30;99.90;;;;;;5036223;28;20210;-70
2022/10/25 01:01:17;;;;;;;1.33;1.02;;;18.40;99.90;;;;;;5054537;28;20175;-70
2022/10/25 01:03:46;;;;;;;1.20;1.10;;;18.30;99.90;;;;;;5020089;28;20195;-70
2022/10/25 01:06:23;;;;;;;1.17;1.10;;;18.30;99.90;;;;;;5036613;28;20183;-70
2022/10/25 01:08:52;;;;;;;1.20;1.10;;;18.40;99.90;;;;;;5053226;28;20181;-70
2022/10/25 01:11:19;;;;;;;1.50;1.10;;;18.30;99.90;;;;;;5036386;28;20183;-70
2022/10/25 01:13:45;;;;;;;1.38;1.10;;;18.40;99.90;;;;;;5053005;28;20202;-70
2022/10/25 01:16:40;;;;;;;1.17;1.08;;;18.30;99.90;;;;;;5053081;28;20186;-70
2022/10/25 01:19:43;;;;;;;1.88;1.00;;;18.30;99.90;;;;;;4994413;28;20205;-70
2022/10/25 01:22:53;;;;;;;1.25;1.10;;;18.30;99.90;;;;;;5036106;28;20201;-71
2022/10/25 01:25:43;;;;;;;1.38;1.00;;;18.30;99.90;;;;;;5026990;28;20198;-70
2022/10/25 01:28:40;;;;;;;1.10;1.00;;;18.30;99.90;;;;;;5019489;28;20229;-70
2022/10/25 01:31:23;;;;;;;1.17;0.90;;;18.30;99.90;;;;;;5036063;28;20175;-70
2022/10/25 01:34:06;;;;;;;1.80;0.80;;;18.30;99.90;;;;;;5036001;28;20206;-70
2022/10/25 01:36:59;;;;;;;1.85;1.10;;;18.30;99.90;;;;;;5054324;28;20210;-71
2022/10/25 01:39:51;;;;;;;1.05;0.82;;;18.30;99.90;;;;;;5035953;28;20190;-70
2022/10/25 01:42:37;;;;;;;0.68;0.68;;;18.30;99.90;;;;;;5053655;28;20213;-71
2022/10/25 01:45:14;;;;;;;1.40;0.90;;;18.30;99.90;;;;;;5036051;28;20240;-70
2022/10/25 01:47:50;;;;;;;1.25;1.13;;;18.30;99.90;;;;;;5035751;28;20252;-71
2022/10/25 01:50:31;;;;;;;1.67;1.10;;;18.30;99.90;;;;;;5052440;28;20177;-70
2022/10/25 01:52:57;;;;;;;1.45;1.10;;;18.30;99.90;;;;;;5053427;28;20198;-70
2022/10/25 01:55:59;;;;;;;1.85;1.30;;;18.30;99.90;;;;;;5052611;28;20185;-71
2022/10/25 01:58:44;;;;;;;1.30;1.00;;;18.30;99.90;;;;;;5031477;28;20261;-70
2022/10/25 02:01:57;;;;;;;1.38;1.10;;;18.30;99.90;;;;;;5035563;28;20166;-70
2022/10/25 02:04:52;;;;;;;1.15;0.82;;;18.30;99.90;;;;;;4934807;29;20655;-70
2022/10/25 02:07:45;;;;;;;1.60;1.20;;;18.30;99.90;;;;;;4937003;29;20186;-70
2022/10/25 02:10:27;;;;;;;1.20;0.90;;;18.30;99.90;;;;;;5014797;28;20190;-71
2022/10/25 02:13:22;;;;;;;1.40;1.10;;;18.30;99.90;;;;;;5018870;28;20600;-71
2022/10/25 02:15:59;;;;;;;0.95;0.95;;;18.30;99.90;;;;;;5051924;28;20174;-71
2022/10/25 02:18:29;;;;;;;2.40;0.98;;;18.30;99.90;;;;;;5035263;28;20229;-70
2022/10/25 02:20:57;;;;;;;1.45;1.20;;;18.30;99.90;;;;;;5034909;28;20193;-70
2022/10/25 02:23:26;;;;;;;1.10;1.00;;;18.30;99.90;;;;;;5052955;28;20210;-70
2022/10/25 02:25:53;;;;;;;0.93;0.88;;;18.30;99.90;;;;;;5051635;28;20182;-70
2022/10/25 02:28:25;;;;;;;2.50;1.05;;;18.30;99.90;;;;;;5034753;28;20654;-70
2022/10/25 02:30:53;;;;;;;1.83;1.20;;;18.30;99.90;;;;;;5018888;28;20171;-70
2022/10/25 02:33:19;;;;;;;1.30;1.20;;;18.20;99.90;;;;;;5034785;28;20198;-70
2022/10/25 02:36:33;;;;;;;1.67;1.13;;;18.20;99.90;;;;;;5051522;28;20186;-70
2022/10/25 02:39:01;;;;;;;1.13;1.05;;;18.20;99.90;;;;;;5031215;28;20745;-70
2022/10/25 02:41:26;;;;;;;1.10;1.00;;;18.30;99.90;;;;;;5051360;28;20243;-71
2022/10/25 02:43:52;;;;;;;1.42;1.13;;;18.30;99.90;;;;;;5018528;28;20677;-70
2022/10/25 02:46:21;;;;;;;1.30;1.20;;;18.20;99.90;;;;;;5051276;28;20517;-70
2022/10/25 02:48:49;;;;;;;1.40;1.10;;;18.30;99.90;;;;;;5051134;28;20186;-70
2022/10/25 02:51:16;;;;;;;1.20;1.10;;;18.20;99.90;;;;;;5034953;28;20186;-70
2022/10/25 02:53:43;;;;;;;1.17;1.02;;;18.30;99.90;;;;;;5052311;28;20203;-70
2022/10/25 02:56:13;;;;;;;1.20;1.10;;;18.30;99.90;;;;;;5034908;28;20186;-70
2022/10/25 02:58:42;;;;;;;1.13;1.00;;;18.30;99.90;;;;;;5052216;28;20212;-70
2022/10/25 03:01:09;;;;;;;1.58;1.30;;;18.30;99.90;;;;;;5052316;28;20187;-71
2022/10/25 03:03:35;;;;;;;1.95;1.40;;;18.20;99.90;;;;;;5034642;28;20584;-70
2022/10/25 03:06:01;;;;;;;1.35;1.15;;;18.30;99.90;;;;;;5050855;28;20709;-70
2022/10/25 03:08:27;;;;;;;1.73;1.30;;;18.20;99.90;;;;;;5034542;28;20183;-71
2022/10/25 03:10:54;;;;;;;1.88;1.00;;;18.30;99.90;;;;;;5052191;28;20178;-70
2022/10/25 03:13:20;;;;;;;1.77;1.20;;;18.20;99.90;;;;;;5034246;28;20202;-70
2022/10/25 03:15:46;;;;;;;1.15;1.10;;;18.30;99.90;;;;;;5052086;28;20676;-70
2022/10/25 03:18:13;;;;;;;2.30;1.40;;;18.30;99.90;;;;;;5034729;28;20214;-71
2022/10/25 03:20:40;;;;;;;1.23;1.13;;;18.20;99.90;;;;;;5017719;28;20186;-70
2022/10/25 03:23:07;;;;;;;2.10;1.60;;;18.30;99.90;;;;;;5050812;28;20300;-70
2022/10/25 03:25:33;;;;;;;1.63;1.30;;;18.20;99.90;;;;;;5052147;28;20179;-70
2022/10/25 03:27:59;;;;;;;1.92;1.30;;;18.30;99.90;;;;;;5034456;28;20269;-70
2022/10/25 03:30:26;;;;;;;1.35;1.25;;;18.20;99.90;;;;;;5033957;28;20658;-70
2022/10/25 03:32:52;;;;;;;1.75;1.27;;;18.20;99.90;;;;;;5019110;28;20636;-70
2022/10/25 03:35:18;;;;;;;1.25;1.15;;;18.20;99.90;;;;;;5054898;28;20178;-70
2022/10/25 03:37:43;;;;;;;1.40;1.30;;;18.20;99.90;;;;;;5055006;28;20212;-70
2022/10/25 03:40:10;;;;;;;2.63;1.10;;;18.20;99.90;;;;;;5037755;28;20196;-70
2022/10/25 03:42:35;;;;;;;1.25;1.15;;;18.20;99.90;;;;;;5054996;28;20210;-70
2022/10/25 03:45:01;;;;;;;1.40;1.30;;;18.20;99.90;;;;;;5037906;28;20190;-70
2022/10/25 03:47:27;;;;;;;1.60;1.30;;;18.20;99.90;;;;;;5038012;28;20675;-70
2022/10/25 03:49:53;;;;;;;1.38;1.27;;;18.20;99.90;;;;;;5037774;28;20190;-70
2022/10/25 03:52:18;;;;;;;1.13;1.00;;;18.20;99.90;;;;;;5054779;28;20220;-70
2022/10/25 03:54:44;;;;;;;1.30;1.08;;;18.20;99.90;;;;;;5054552;28;20232;-70
2022/10/25 03:57:10;;;;;;;1.35;1.25;;;18.20;99.90;;;;;;5055264;28;20202;-70
2022/10/25 03:59:35;;;;;;;1.33;1.23;;;18.20;99.90;;;;;;5054403;28;20194;-70
2022/10/25 04:02:01;;;;;;;1.40;1.30;;;18.20;99.90;;;;;;5054417;28;20179;-70
2022/10/25 04:04:27;;;;;;;1.65;1.27;;;18.20;99.90;;;;;;5037753;28;20179;-70
2022/10/25 04:06:53;;;;;;;1.30;1.20;;;18.20;99.90;;;;;;5037827;28;20190;-70
2022/10/25 04:09:18;;;;;;;1.88;1.17;;;18.20;99.90;;;;;;5054168;28;20175;-70
2022/10/25 04:11:44;;;;;;;1.35;1.20;;;18.20;99.90;;;;;;5054068;28;20186;-69
2022/10/25 04:14:10;;;;;;;1.15;1.08;;;18.20;99.90;;;;;;5037361;28;20206;-70
2022/10/25 04:16:36;;;;;;;1.75;1.23;;;18.20;99.90;;;;;;5055050;28;20243;-70
2022/10/25 04:19:01;;;;;;;1.20;1.10;;;18.20;99.90;;;;;;5053896;28;20182;-70
2022/10/25 04:21:27;;;;;;;2.15;1.48;;;18.10;99.90;;;;;;5037482;28;20183;-71
2022/10/25 04:23:53;;;;;;;1.60;1.50;;;18.10;99.90;;;;;;5037386;28;20210;-70
2022/10/25 04:26:19;;;;;;;1.70;1.60;;;18.10;99.90;;;;;;5037410;28;20182;-70
2022/10/25 04:28:54;;;;;;;2.25;1.60;;;18.10;99.90;;;;;;5037095;28;20196;-69
2022/10/25 04:31:21;;;;;;;1.25;1.15;;;18.20;99.90;;;;;;5053791;28;20189;-71
2022/10/25 04:33:53;;;;;;;1.98;1.40;;;18.10;99.90;;;;;;5053549;28;20700;-70
2022/10/25 04:36:20;;;;;;;1.52;1.42;;;18.20;99.90;;;;;;5054111;28;20197;-71
2022/10/25 04:38:54;;;;;;;1.77;1.67;;;18.10;99.90;;;;;;5054684;28;20183;-70
2022/10/25 04:41:21;;;;;;;1.70;1.60;;;18.10;99.90;;;;;;5036981;28;20182;-70
2022/10/25 04:43:47;;;;;;;1.70;1.60;;;18.20;99.90;;;;;;5036697;28;20269;-70
2022/10/25 04:46:14;;;;;;;1.75;1.60;;;18.10;99.90;;;;;;5053797;28;20256;-70
2022/10/25 04:48:41;;;;;;;1.80;1.70;;;18.10;99.90;;;;;;5053370;28;20182;-72
2022/10/25 04:51:08;;;;;;;1.60;1.50;;;18.10;99.90;;;;;;5037089;28;20194;-71
2022/10/25 04:53:34;;;;;;;2.30;1.63;;;18.10;99.90;;;;;;5053109;28;20630;-71
2022/10/25 04:56:03;;;;;;;2.70;2.08;;;18.10;99.90;;;;;;5036941;28;20183;-70
2022/10/25 04:58:29;;;;;;;2.70;1.80;;;18.10;99.90;;;;;;5053114;28;20287;-71
2022/10/25 05:01:11;;;;;;;2.17;1.95;;;18.10;99.90;;;;;;5036496;28;20199;-71
2022/10/25 05:03:38;;;;;;;2.08;1.88;;;18.10;99.90;;;;;;5053028;28;20256;-72
2022/10/25 05:06:14;;;;;;;2.10;1.90;;;18.10;99.90;;;;;;5053159;28;20179;-71
2022/10/25 05:08:44;;;;;;;2.13;1.92;;;18.10;99.90;;;;;;5036368;28;20251;-70
2022/10/25 05:11:11;;;;;;;2.00;1.80;;;18.10;99.90;;;;;;5053301;28;20621;-70
2022/10/25 05:13:40;;;;;;;2.20;2.00;;;18.10;99.90;;;;;;5052759;28;20202;-70
2022/10/25 05:16:07;;;;;;;2.33;1.83;;;18.10;99.90;;;;;;5052148;28;20217;-71
2022/10/25 05:18:34;;;;;;;1.85;1.73;;;18.10;99.90;;;;;;5035674;28;20221;-71
2022/10/25 05:21:04;;;;;;;2.42;1.90;;;18.10;99.90;;;;;;5052353;28;20182;-71
2022/10/25 05:23:32;;;;;;;2.05;1.95;;;18.10;99.90;;;;;;5053345;28;20214;-70
2022/10/25 05:26:10;;;;;;;2.10;1.60;;;18.10;99.90;;;;;;5053570;28;20183;-70
2022/10/25 05:28:38;;;;;;;2.28;1.80;;;18.10;99.90;;;;;;5052319;28;20289;-70
2022/10/25 05:31:25;;;;;;;2.13;1.77;;;18.10;99.90;;;;;;5035612;28;20240;-70
2022/10/25 05:33:54;;;;;;;2.30;2.10;;;18.10;99.90;;;;;;5035551;28;20293;-70
2022/10/25 05:36:21;;;;;;;1.83;1.73;;;18.10;99.90;;;;;;5052358;28;20186;-70
2022/10/25 05:38:47;;;;;;;1.98;1.88;;;18.10;99.90;;;;;;5053117;28;20179;-70
2022/10/25 05:41:16;;;;;;;2.05;1.85;;;18.10;99.90;;;;;;5051978;28;20281;-70
2022/10/25 05:43:43;;;;;;;1.90;1.80;;;18.10;99.90;;;;;;5052009;28;20207;-71
2022/10/25 05:46:15;;;;;;;1.98;1.88;;;18.00;99.90;;;;;;5035301;28;20213;-70
2022/10/25 05:48:41;;;;;;;2.55;2.05;;;18.10;99.90;;;;;;5035220;28;20662;-70
2022/10/25 05:51:12;;;;;;;2.80;2.13;;;18.10;99.90;;;;;;5051857;28;20215;-71
2022/10/25 05:53:47;;;;;;;2.30;2.10;;;18.10;99.90;;;;;;5050114;28;20261;-71
2022/10/25 05:56:14;;;;;;;3.72;2.10;;;18.10;99.90;;;;;;5014759;28;20212;-71
2022/10/25 05:58:41;;;;;;;2.25;1.90;;;18.00;99.90;;;;;;5031590;28;20266;-70
2022/10/25 06:01:10;;;;;;;2.58;2.20;;;18.00;99.90;;;;;;5015187;28;20200;-71
2022/10/25 06:03:36;;;;;;;2.47;2.28;;;18.10;99.90;;;;;;5031642;28;20593;-70
2022/10/25 06:06:06;;;;;;;2.42;2.22;;;18.00;99.90;;;;;;5015346;28;20236;-71
2022/10/25 06:08:34;;;;;;;2.60;2.40;;;18.00;99.90;;;;;;5015587;28;20192;-71
2022/10/25 06:11:12;;;;;;;2.72;2.53;;;18.00;99.90;;;;;;5031576;28;20219;-71
2022/10/25 06:13:39;;;;;;;2.08;1.95;;;18.00;99.90;;;;;;5015182;28;20203;-70
2022/10/25 06:16:11;;;;;;;2.22;2.10;;;18.00;99.90;;;;;;5032815;28;20198;-71
2022/10/25 06:18:39;;;;;;;2.75;2.03;;;18.00;99.90;;;;;;5015000;28;20226;-70
2022/10/25 06:21:09;;;;;;;2.72;2.05;;;18.10;99.90;;;;;;5033948;28;20194;-71
2022/10/25 06:23:35;;;;;;;2.33;2.08;;;18.00;99.90;;;;;;5031273;28;20213;-71
2022/10/25 06:26:08;;;;;;;2.20;2.05;;;18.00;99.90;;;;;;5031705;28;20214;-71
2022/10/25 06:28:35;;;;;;;2.45;2.13;;;18.00;99.90;;;;;;5014741;28;20194;-70
2022/10/25 06:31:03;;;;;;;2.20;2.00;;;18.00;99.90;;;;;;5014497;28;20187;-71
2022/10/25 06:33:30;;;;;;;2.45;2.20;;;18.10;99.90;;;;;;5031447;28;20682;-70
2022/10/25 06:35:58;;;;;;;2.20;2.00;;;18.10;99.90;;;;;;5014891;28;20198;-71
2022/10/25 06:38:25;;;;;;;2.17;1.98;;;18.00;99.90;;;;;;5031231;28;20305;-70
2022/10/25 06:40:57;;;;;;;2.63;1.88;;;18.00;99.90;;;;;;5030760;28;20191;-71
2022/10/25 06:43:23;;;;;;;2.30;1.90;;;18.00;99.90;;;;;;5014448;28;20213;-71
2022/10/25 06:45:48;;;;;;;2.17;1.98;;;18.00;99.90;;;;;;5031140;28;20183;-71
2022/10/25 06:48:14;;;;;;;3.17;2.05;;;18.00;99.90;;;;;;5014646;28;20241;-71
2022/10/25 06:50:40;;;;;;;1.95;1.73;;;18.10;99.90;;;;;;5031917;28;20183;-70
2022/10/25 06:53:05;;;;;;;2.05;1.85;;;18.00;99.90;;;;;;5030940;28;20217;-71
2022/10/25 06:55:31;;;;;;;2.10;1.90;;;18.10;99.90;;;;;;5030567;28;20278;-71
2022/10/25 06:57:57;;;;;;;2.65;1.92;;;18.10;99.90;;;;;;5014256;28;20219;-70
2022/10/25 07:00:23;;;;;;;2.38;1.80;;;18.10;99.90;;;;;;5014157;28;20183;-71
2022/10/25 07:02:57;;;;;;;2.20;1.83;;;18.00;99.90;;;;;;5030618;28;20226;-71
2022/10/25 07:05:23;;;;;;;1.70;1.60;;;18.00;99.90;;;;;;5031884;28;20179;-70
2022/10/25 07:07:49;;;;;;;1.85;1.75;;;18.10;99.90;;;;;;5013467;28;20195;-70
2022/10/25 07:10:16;;;;;;;1.98;1.88;;;18.10;99.90;;;;;;5030573;28;20253;-70
2022/10/25 07:12:42;;;;;;;2.00;1.67;;;18.10;99.90;;;;;;5030495;28;20230;-71
2022/10/25 07:15:08;;;;;;;2.38;1.60;;;18.00;99.90;;;;;;5030787;28;20187;-70
2022/10/25 07:17:34;;;;;;;1.77;1.67;;;18.00;99.90;;;;;;5030535;28;20280;-71
2022/10/25 07:20:00;;;;;;;2.63;1.90;;;18.00;99.90;;;;;;5014099;28;20195;-71
2022/10/25 07:22:26;;;;;;;1.67;1.58;;;18.00;99.90;;;;;;5044356;28;20474;-71
2022/10/25 07:24:52;;;;;;;1.70;1.60;;;18.10;99.90;;;;;;5044804;22;20236;-68
2022/10/25 07:27:17;;;;;;;1.50;1.40;;;18.10;99.90;;;;;;5010625;28;20258;-67
2022/10/25 07:29:43;;;;;;;1.98;1.80;;;18.10;99.90;;;;;;5010568;28;20202;-68
2022/10/25 07:32:09;;;;;;;1.73;1.40;;;18.10;99.90;;;;;;5010734;28;20192;-68
2022/10/25 07:34:35;;;;;;;1.30;1.20;;;18.10;99.90;;;;;;5010556;28;20208;-67
2022/10/25 07:37:01;;;;;;;1.80;1.60;;;18.10;99.90;;;;;;5011778;28;20212;-69
2022/10/25 07:39:27;;;;;;;1.98;1.75;;;18.10;99.90;;;;;;5010120;28;20183;-68
2022/10/25 07:41:53;;;;;;;1.83;1.73;;;18.10;99.90;;;;;;4994320;28;20684;-67
2022/10/25 07:44:22;;;;;;;2.47;1.50;;;18.10;99.90;;;;;;4994348;28;20215;-68
2022/10/25 07:46:49;;;;;;;1.48;1.38;;;18.10;99.90;;;;;;5010766;28;20180;-68
2022/10/25 07:49:15;;;;;;;1.60;1.50;;;18.10;99.90;;;;;;5011519;28;20184;-68
2022/10/25 07:51:41;;;;;;;1.50;1.40;;;18.10;99.90;;;;;;4994230;28;20236;-67
2022/10/25 07:54:06;;;;;;;1.40;1.30;;;18.10;99.90;;;;;;5010195;28;20270;-68
2022/10/25 07:56:32;;;;;;;1.67;1.58;;;18.20;99.90;;;;;;4994148;28;20358;-68
2022/10/25 07:58:58;;;;;;;1.23;1.13;;;18.20;99.90;;;;;;5010235;28;20242;-66
2022/10/25 08:01:27;;;;;;;1.60;1.50;;;18.20;99.90;;;;;;4993960;28;20187;-67
2022/10/25 08:03:54;;;;;;;1.40;1.30;;;18.20;99.90;;;;;;4993846;28;20200;-68
2022/10/25 08:06:22;;;;;;;1.42;1.27;;;18.20;99.90;;;;;;4994017;28;20183;-68
2022/10/25 08:08:48;;;;;;;1.67;1.58;;;18.20;99.90;;;;;;4993952;28;20188;-67
2022/10/25 08:11:15;;;;;;;1.77;1.40;;;18.20;99.90;;;;;;4993860;28;20188;-68
2022/10/25 08:13:41;;;;;;;2.35;1.20;;;18.20;99.90;;;;;;5010360;28;20235;-68
2022/10/25 08:16:07;;;;;;;1.90;1.45;;;18.20;99.90;;;;;;5010348;28;20667;-66
2022/10/25 08:18:34;;;;;;;1.52;1.40;;;18.30;99.90;;;;;;4994578;28;20220;-68
2022/10/25 08:21:01;;;;;;;1.35;1.25;;;18.30;99.90;;;;;;5013936;28;20202;-68
2022/10/25 08:23:27;;;;;;;1.25;1.15;;;18.30;99.90;;;;;;4997190;28;20223;-67
2022/10/25 08:25:53;;;;;;;1.70;1.60;;;18.20;99.90;;;;;;4997583;28;20174;-68
2022/10/25 08:28:19;;;;;;;1.45;1.30;;;18.20;99.90;;;;;;4997486;28;20262;-68
2022/10/25 08:30:45;;;;;;;1.35;1.23;;;18.20;99.90;;;;;;5013842;28;20197;-68
2022/10/25 08:33:11;;;;;;;1.27;1.17;;;18.20;99.90;;;;;;5013596;28;20198;-68
2022/10/25 08:35:36;;;;;;;1.52;1.40;;;18.20;99.90;;;;;;5013685;28;20226;-68
2022/10/25 08:38:03;;;;;;;1.40;1.30;;;18.20;99.90;;;;;;5013728;28;20207;-68
2022/10/25 08:41:10;;;;;;;1.50;1.40;;;18.30;99.90;;;;;;4997102;28;20176;-68
2022/10/25 08:44:07;;;;;;;1.30;1.23;;;18.20;99.90;;;;;;5014812;28;20204;-68
2022/10/25 08:46:52;;;;;;;1.25;1.15;;;18.30;99.90;;;;;;4997201;28;20180;-68
2022/10/25 08:49:34;;;;;;;1.33;1.23;;;18.30;99.90;;;;;;4997048;28;20247;-68
2022/10/25 08:52:01;;;;;;;1.77;1.20;;;18.30;99.90;;;;;;5013492;28;20679;-68
2022/10/25 08:54:42;;;;;;;2.45;1.30;;;18.30;99.90;;;;;;4997014;28;20200;-68
2022/10/25 08:57:24;;;;;;;1.58;1.35;;;18.30;99.90;;;;;;4997007;28;20207;-68
2022/10/25 08:59:54;;;;;;;1.35;1.20;;;18.30;99.90;;;;;;4996798;28;20203;-68
2022/10/25 09:02:36;;;;;;;1.40;1.10;;;18.30;99.90;;;;;;4996876;28;20188;-68
2022/10/25 09:05:08;;;;;;;1.27;1.17;;;18.30;99.90;;;;;;4996891;28;20212;-68
2022/10/25 09:07:48;;;;;;;1.88;1.35;;;18.30;99.90;;;;;;4996771;28;20195;-68
2022/10/25 09:10:36;;;;;;;1.20;0.98;;;18.30;99.90;;;;;;4996540;28;20195;-68
2022/10/25 09:14:02;;;;;;;1.17;1.08;;;18.30;99.90;;;;;;4996577;28;20184;-67
2022/10/25 09:16:35;;;;;;;1.55;1.45;;;18.30;99.90;;;;;;4980135;28;20722;-68
2022/10/25 09:19:12;;;;;;;1.17;1.05;;;18.30;99.90;;;;;;5013261;28;20187;-68
2022/10/25 09:21:48;;;;;;;1.35;1.10;;;18.30;99.90;;;;;;4997372;28;20559;-68
2022/10/25 09:24:47;;;;;;;2.13;1.38;;;18.30;99.90;;;;;;5012963;28;20306;-68
2022/10/25 09:27:25;;;;;;;1.20;1.10;;;18.30;99.90;;;;;;5013430;28;20188;-67
2022/10/25 09:30:02;;;;;;;1.45;1.30;;;18.30;99.90;;;;;;4996122;28;20184;-68
2022/10/25 09:32:43;;;;;;;1.27;1.17;;;18.30;99.90;;;;;;5012927;28;20188;-67
2022/10/25 09:35:43;;;;;;;1.40;1.30;;;18.30;99.90;;;;;;4996589;28;20627;-68
2022/10/25 09:38:15;;;;;;;1.67;1.40;;;18.30;99.90;;;;;;4989147;28;20232;-68
2022/10/25 09:40:48;;;;;;;1.35;1.25;;;18.30;99.90;;;;;;5012591;28;20180;-68
2022/10/25 09:43:25;;;;;;;1.33;1.23;;;18.30;99.90;;;;;;4996797;28;20184;-68
2022/10/25 09:46:00;;;;;;;1.30;1.20;;;18.30;99.90;;;;;;4996781;28;20203;-68
2022/10/25 09:48:41;;;;;;;1.48;1.33;;;18.30;99.90;;;;;;4996351;28;20195;-68
2022/10/25 09:51:41;;;;;;;2.33;1.30;;;18.30;99.90;;;;;;4996111;28;20184;-67
2022/10/25 09:54:22;;;;;;;1.20;1.10;;;18.30;99.90;;;;;;4996284;28;20294;-68
2022/10/25 09:56:48;;;;;;;1.13;1.02;;;18.30;99.90;;;;;;5012889;28;20211;-68
2022/10/25 09:59:14;;;;;;;1.25;1.15;;;18.30;99.90;;;;;;5012426;28;20195;-68
2022/10/25 10:01:41;;;;;;;1.10;1.00;;;18.30;99.90;;;;;;5013743;28;20642;-68
2022/10/25 10:04:32;;;;;;;1.35;1.25;;;18.30;99.90;;;;;;5013611;28;20287;-67
2022/10/25 10:07:18;;;;;;;1.55;1.30;;;18.30;99.90;;;;;;4996187;28;20176;-67
2022/10/25 10:09:47;;;;;;;1.42;1.23;;;18.30;99.90;;;;;;4995968;28;20184;-67
2022/10/25 10:12:27;;;;;;;1.40;1.20;;;18.30;99.90;;;;;;5012728;28;20188;-67
2022/10/25 10:15:03;;;;;;;1.40;1.30;;;18.30;99.90;;;;;;5012320;28;20208;-68
2022/10/25 10:17:30;;;;;;;1.50;1.40;;;18.30;99.90;;;;;;4995974;28;20214;-68
2022/10/25 10:20:13;;;;;;;1.52;1.08;;;18.30;99.90;;;;;;4995736;28;20183;-68
2022/10/25 10:22:52;;;;;;;1.20;1.08;;;18.30;99.90;;;;;;5012182;28;20230;-68
2022/10/25 10:25:27;;;;;;;1.95;1.30;;;18.30;99.90;;;;;;5011957;28;20212;-68
2022/10/25 10:27:56;;;;;;;2.00;1.10;;;18.30;99.90;;;;;;5013494;28;20183;-68
2022/10/25 10:30:29;;;;;;;1.73;1.27;;;18.30;99.90;;;;;;5012213;28;20188;-68
2022/10/25 10:33:00;;;;;;;1.40;1.10;;;18.30;99.90;;;;;;5013375;28;20211;-69
2022/10/25 10:35:31;;;;;;;2.03;1.05;;;18.40;99.90;;;;;;5011947;28;20192;-68
2022/10/25 10:38:25;;;;;;;2.25;1.25;;;18.30;99.90;;;;;;5011780;28;20212;-68
2022/10/25 10:41:23;;;;;;;1.00;1.00;;;18.30;99.90;;;;;;5011549;28;20184;-68
2022/10/25 10:43:50;;;;;;;2.15;1.30;;;18.30;99.90;;;;;;4995369;28;20207;-68
2022/10/25 10:46:23;;;;;;;1.50;1.33;;;18.30;99.90;;;;;;5012156;28;20207;-68
2022/10/25 10:48:56;;;;;;;1.17;1.08;;;18.30;99.90;;;;;;4979315;28;20223;-68
2022/10/25 10:51:37;;;;;;;1.63;1.10;;;18.30;99.90;;;;;;5012837;28;20172;-68
2022/10/25 10:54:27;;;;;;;1.30;1.20;;;18.30;99.90;;;;;;5011871;28;20231;-68
2022/10/25 10:57:00;;;;;;;1.45;1.10;;;18.30;99.90;;;;;;5011140;28;20685;-66
2022/10/25 10:59:52;;;;;;;1.38;1.13;;;18.40;99.90;;;;;;5011737;28;20184;-68
2022/10/25 11:02:23;;;;;;;1.50;1.33;;;18.30;99.90;;;;;;5011958;28;20237;-68
2022/10/25 11:04:53;;;;;;;1.52;1.30;;;18.30;99.90;;;;;;5011485;28;20274;-68
2022/10/25 11:07:41;;;;;;;0.98;0.90;;;18.30;99.90;;;;;;5011754;28;20196;-68
2022/10/25 11:10:15;;;;;;;2.10;1.42;;;18.30;99.90;;;;;;5012549;28;20637;-68
2022/10/25 11:12:42;;;;;;;1.45;1.00;;;18.30;99.90;;;;;;5012644;28;20245;-68
2022/10/25 11:15:15;;;;;;;1.33;1.02;;;18.30;99.90;;;;;;5011430;28;20210;-68
2022/10/25 11:17:56;;;;;;;1.98;1.20;;;18.40;99.90;;;;;;4995016;28;20212;-68
2022/10/25 11:21:04;;;;;;;2.78;1.08;;;18.30;99.90;;;;;;5011585;28;20263;-68
2022/10/25 11:23:54;;;;;;;1.33;0.90;;;18.30;99.90;;;;;;4994643;28;20226;-68
2022/10/25 11:27:07;;;;;;;1.05;0.75;;;18.40;99.90;;;;;;5011352;28;20191;-68
2022/10/25 11:29:35;;;;;;;1.58;1.20;;;18.30;99.90;;;;;;4994762;28;20192;-69
2022/10/25 11:32:26;;;;;;;1.98;1.05;;;18.40;99.90;;;;;;5011387;28;20202;-68
2022/10/25 11:35:15;;;;;;;1.00;0.98;;;18.40;99.90;;;;;;5011465;28;20254;-68
2022/10/25 11:37:53;;;;;;;1.60;1.17;;;18.40;99.90;;;;;;4994691;28;20211;-68
2022/10/25 11:40:30;;;;;;;1.70;1.00;;;18.40;99.90;;;;;;5001879;28;20267;-68
2022/10/25 11:43:19;;;;;;;1.98;1.05;;;18.40;99.90;;;;;;5003492;28;20203;-68
2022/10/25 11:45:54;;;;;;;1.02;0.77;;;18.40;99.90;;;;;;5011170;28;20637;-68
2022/10/25 11:48:54;;;;;;;1.27;1.15;;;18.40;99.90;;;;;;4994718;28;20206;-68
2022/10/25 11:51:46;;;;;;;1.10;1.00;;;18.40;99.90;;;;;;5011991;28;20237;-69
2022/10/25 11:54:31;;;;;;;1.77;1.15;;;18.40;99.90;;;;;;4996654;28;20207;-68
2022/10/25 11:57:35;;;;;;;4.68;1.10;;;18.40;99.90;;;;;;4998363;28;20212;-68
2022/10/25 12:00:23;;;;;;;1.42;0.90;;;18.40;99.90;;;;;;5014220;28;20199;-68
2022/10/25 12:03:25;;;;;;;1.38;0.80;;;18.40;99.90;;;;;;5015053;28;20182;-68
2022/10/25 12:06:43;;;;;;;1.25;0.90;;;18.40;99.90;;;;;;5015096;28;20172;-68
2022/10/25 12:09:51;;;;;;;1.25;0.73;;;18.40;99.90;;;;;;4972319;28;20663;-68
2022/10/25 12:12:25;;;;;;;3.20;1.08;;;18.40;99.90;;;;;;5004487;28;20192;-67
2022/10/25 12:14:56;;;;;;;1.42;1.10;;;18.40;99.90;;;;;;4995229;28;20209;-68
2022/10/25 12:17:33;;;;;;;0.95;0.88;;;18.40;99.90;;;;;;4995125;28;20217;-68
2022/10/25 12:20:10;;;;;;;2.00;1.08;;;18.40;99.90;;;;;;5031156;28;20196;-68
2022/10/25 12:22:42;;;;;;;1.88;0.90;;;18.40;99.90;;;;;;5034143;28;20662;-68
2022/10/25 12:25:25;;;;;;;1.42;0.90;;;18.40;99.90;;;;;;5034089;28;20222;-68
2022/10/25 12:28:40;;;;;;;1.15;0.73;;;18.40;99.90;;;;;;5034030;28;20179;-68
2022/10/25 12:31:22;;;;;;;1.10;0.80;;;18.50;99.90;;;;;;4992866;28;20192;-68
2022/10/25 12:33:58;;;;;;;2.15;0.98;;;18.50;99.90;;;;;;4994642;28;20212;-68
2022/10/25 12:36:43;;;;;;;1.20;0.77;;;18.50;99.90;;;;;;5021320;28;20179;-68
2022/10/25 12:39:26;;;;;;;1.85;1.10;;;18.40;99.90;;;;;;5023195;28;20223;-68
2022/10/25 12:42:01;;;;;;;1.58;0.85;;;18.40;99.90;;;;;;5002513;28;20187;-68
2022/10/25 12:45:10;;;;;;;1.75;0.95;;;18.40;99.90;;;;;;4997439;28;20258;-68
2022/10/25 12:48:08;;;;;;;1.17;0.90;;;18.40;99.90;;;;;;5015033;28;20183;-68
2022/10/25 12:50:53;;;;;;;2.40;1.20;;;18.40;99.90;;;;;;5022820;28;20206;-68
2022/10/25 12:53:42;;;;;;;1.65;0.90;;;18.40;99.90;;;;;;5033774;28;20182;-68
2022/10/25 12:56:55;;;;;;;1.08;0.93;;;18.40;99.90;;;;;;5027821;28;20190;-68
2022/10/25 13:00:00;;;;;;;1.40;0.88;;;18.40;99.90;;;;;;5014019;28;20228;-68
2022/10/25 13:03:27;;;;;;;1.23;0.90;;;18.40;99.90;;;;;;4997419;28;20191;-68
2022/10/25 13:06:20;;;;;;;1.40;0.80;;;18.40;99.90;;;;;;5013455;28;20199;-68
2022/10/25 13:08:47;;;;;;;2.28;1.13;;;18.40;99.90;;;;;;5019282;28;20303;-68
2022/10/25 13:11:13;;;;;;;1.50;0.90;;;18.40;99.90;;;;;;4997346;28;20234;-69
2022/10/25 13:13:49;;;;;;;2.00;0.70;;;18.40;99.90;;;;;;5013483;28;20211;-68
2022/10/25 13:16:25;;;;;;;1.35;1.00;;;18.50;99.90;;;;;;5013409;28;20180;-68
2022/10/25 13:19:19;;;;;;;0.80;0.60;;;18.50;99.90;;;;;;5013745;28;20216;-68
2022/10/25 13:21:53;;;;;;;1.15;1.02;;;18.50;99.90;;;;;;5013244;28;20648;-68
2022/10/25 13:24:42;;;;;;;1.10;1.00;;;18.40;99.90;;;;;;5042183;22;20287;-71
2022/10/25 13:27:14;;;;;;;1.90;0.73;;;18.50;99.90;;;;;;5069355;28;20224;-71